createdAt,value
2023-01-21T00:00:18.322Z,100850.44
2023-01-21T00:02:48.944Z,100848.63
2023-01-21T00:05:17.517Z,100855.28
2023-01-21T00:07:48.114Z,100852.56
2023-01-21T00:10:18.881Z,100865.53
2023-01-21T00:12:47.360Z,100867.88
2023-01-21T00:15:16.728Z,100873.19
2023-01-21T00:17:45.059Z,100877.59
2023-01-21T00:20:13.980Z,100880.47
2023-01-21T00:22:42.856Z,100882.63
2023-01-21T00:25:13.474Z,100887.00
2023-01-21T00:27:42.076Z,100893.19
2023-01-21T00:30:12.943Z,100896.06
2023-01-21T00:32:41.402Z,100906.75
2023-01-21T00:35:10.393Z,100897.44
2023-01-21T00:37:38.891Z,100900.00
2023-01-21T00:40:09.863Z,100904.19
2023-01-21T00:42:40.139Z,100904.34
2023-01-21T00:45:11.006Z,100907.94
2023-01-21T00:47:39.374Z,100916.63
2023-01-21T00:50:09.968Z,100919.19
2023-01-21T00:52:39.251Z,100922.47
2023-01-21T00:55:11.431Z,100936.75
2023-01-21T00:57:41.361Z,100937.53
2023-01-21T01:00:13.100Z,100938.44
2023-01-21T01:02:43.424Z,100941.84
2023-01-21T01:05:12.422Z,100949.06
2023-01-21T01:07:43.534Z,100959.28
2023-01-21T01:10:13.188Z,100958.38
2023-01-21T01:12:43.177Z,100959.28
2023-01-21T01:15:12.639Z,100971.13
2023-01-21T01:17:41.055Z,100980.13
2023-01-21T01:20:11.639Z,100977.31
2023-01-21T01:22:40.114Z,100985.72
2023-01-21T01:25:09.131Z,100996.53
2023-01-21T01:27:37.664Z,101008.41
2023-01-21T01:30:09.546Z,101015.00
2023-01-21T01:32:37.945Z,101011.25
2023-01-21T01:35:07.267Z,101017.88
2023-01-21T01:37:35.720Z,101020.25
2023-01-21T01:40:04.629Z,101018.16
2023-01-21T01:42:33.570Z,101029.88
2023-01-21T01:45:05.211Z,101026.28
2023-01-21T01:47:44.557Z,101029.44
2023-01-21T01:50:19.334Z,101039.78
2023-01-21T01:52:48.685Z,101035.59
2023-01-21T01:55:17.217Z,101035.75
2023-01-21T01:57:51.674Z,101040.06
2023-01-21T02:00:22.322Z,101038.75
2023-01-21T02:03:12.947Z,101040.97
2023-01-21T02:05:43.887Z,101047.09
2023-01-21T02:08:13.017Z,101052.38
2023-01-21T02:10:42.827Z,101056.88
2023-01-21T02:13:11.822Z,101049.34
2023-01-21T02:15:56.196Z,101049.66
2023-01-21T02:18:39.514Z,101045.47
2023-01-21T02:21:45.428Z,101053.28
2023-01-21T02:24:46.609Z,101059.25
2023-01-21T02:27:42.293Z,101055.03
2023-01-21T02:31:06.885Z,101064.50
2023-01-21T02:33:57.158Z,101064.66
2023-01-21T02:36:43.733Z,101071.56
2023-01-21T02:39:22.950Z,101060.47
2023-01-21T02:42:05.074Z,101067.06
2023-01-21T02:44:40.458Z,101075.47
2023-01-21T02:47:20.004Z,101072.78
2023-01-21T02:49:57.135Z,101078.47
2023-01-21T02:52:27.201Z,101077.56
2023-01-21T02:54:58.326Z,101080.88
2023-01-21T02:57:47.041Z,101094.09
2023-01-21T03:00:21.018Z,101093.03
2023-01-21T03:03:33.838Z,101096.06
2023-01-21T03:06:38.444Z,101087.97
2023-01-21T03:09:19.873Z,101093.97
2023-01-21T03:12:00.551Z,101110.47
2023-01-21T03:14:51.639Z,101098.31
2023-01-21T03:17:28.746Z,101107.00
2023-01-21T03:20:05.468Z,101111.22
2023-01-21T03:22:37.129Z,101110.03
2023-01-21T03:25:09.905Z,101117.84
2023-01-21T03:27:44.272Z,101113.91
2023-01-21T03:30:17.607Z,101116.63
2023-01-21T03:32:49.939Z,101121.00
2023-01-21T03:35:22.772Z,101118.44
2023-01-21T03:37:58.421Z,101123.53
2023-01-21T03:40:31.446Z,101126.84
2023-01-21T03:43:00.416Z,101123.84
2023-01-21T03:45:38.588Z,101120.22
2023-01-21T03:48:17.476Z,101130.44
2023-01-21T03:50:52.087Z,101139.00
2023-01-21T03:53:22.744Z,101142.13
2023-01-21T03:55:52.464Z,101141.53
2023-01-21T03:58:20.893Z,101148.56
2023-01-21T04:00:49.344Z,101142.00
2023-01-21T04:03:17.770Z,101149.31
2023-01-21T04:05:46.241Z,101150.69
2023-01-21T04:08:14.728Z,101148.72
2023-01-21T04:10:44.560Z,101151.09
2023-01-21T04:13:13.068Z,101147.69
2023-01-21T04:15:41.596Z,101159.66
2023-01-21T04:18:09.951Z,101153.06
2023-01-21T04:20:38.856Z,101153.97
2023-01-21T04:23:07.188Z,101155.47
2023-01-21T04:25:35.737Z,101170.75
2023-01-21T04:28:06.303Z,101175.13
2023-01-21T04:30:34.813Z,101172.56
2023-01-21T04:33:03.172Z,101172.75
2023-01-21T04:35:31.759Z,101168.38
2023-01-21T04:38:00.347Z,101184.41
2023-01-21T04:40:28.892Z,101179.16
2023-01-21T04:42:57.554Z,101183.22
2023-01-21T04:45:27.408Z,101178.13
2023-01-21T04:47:56.110Z,101180.84
2023-01-21T04:50:24.435Z,101178.41
2023-01-21T04:52:52.886Z,101179.47
2023-01-21T04:55:21.245Z,101178.13
2023-01-21T04:57:49.715Z,101179.94
2023-01-21T05:00:19.701Z,101180.09
2023-01-21T05:02:51.677Z,101192.09
2023-01-21T05:05:20.317Z,101193.44
2023-01-21T05:07:48.882Z,101199.44
2023-01-21T05:10:19.096Z,101196.13
2023-01-21T05:12:48.553Z,101194.34
2023-01-21T05:15:17.211Z,101197.34
2023-01-21T05:17:45.556Z,101202.44
2023-01-21T05:20:16.262Z,101203.19
2023-01-21T05:22:47.655Z,101205.72
2023-01-21T05:25:17.161Z,101206.78
2023-01-21T05:27:45.566Z,101202.44
2023-01-21T05:30:14.469Z,101218.63
2023-01-21T05:32:43.090Z,101216.53
2023-01-21T05:35:13.923Z,101216.38
2023-01-21T05:37:43.764Z,101218.94
2023-01-21T05:40:14.262Z,101224.94
2023-01-21T05:42:42.834Z,101230.03
2023-01-21T05:45:12.459Z,101232.72
2023-01-21T05:47:41.311Z,101245.34
2023-01-21T05:50:12.127Z,101241.72
2023-01-21T05:52:40.968Z,101235.41
2023-01-21T05:55:11.324Z,101245.34
2023-01-21T05:57:39.880Z,101252.09
2023-01-21T06:00:10.161Z,101261.53
2023-01-21T06:02:38.661Z,101262.13
2023-01-21T06:05:08.701Z,101264.84
2023-01-21T06:07:37.366Z,101271.41
2023-01-21T06:10:07.380Z,101280.72
2023-01-21T06:12:37.827Z,101277.13
2023-01-21T06:15:08.251Z,101296.47
2023-01-21T06:17:40.634Z,101287.59
2023-01-21T06:20:10.956Z,101293.88
2023-01-21T06:22:39.468Z,101302.84
2023-01-21T06:25:08.736Z,101300.13
2023-01-21T06:27:38.850Z,101313.66
2023-01-21T06:30:09.749Z,101312.75
2023-01-21T06:32:38.821Z,101322.03
2023-01-21T06:35:08.000Z,101313.31
2023-01-21T06:37:36.666Z,101318.41
2023-01-21T06:40:06.099Z,101320.97
2023-01-21T06:42:34.797Z,101320.22
2023-01-21T06:45:06.069Z,101318.41
2023-01-21T06:47:34.633Z,101324.41
2023-01-21T06:50:03.042Z,101316.94
2023-01-21T06:52:31.446Z,101320.53
2023-01-21T06:54:59.899Z,101316.34
2023-01-21T06:57:28.323Z,101317.25
2023-01-21T06:59:56.691Z,101320.88
2023-01-21T07:02:26.516Z,101328.50
2023-01-21T07:04:57.471Z,101324.47
2023-01-21T07:07:27.240Z,101339.16
2023-01-21T07:09:56.106Z,101344.59
2023-01-21T07:12:24.511Z,101336.06
2023-01-21T07:14:53.031Z,101347.28
2023-01-21T07:17:23.163Z,101349.84
2023-01-21T07:19:53.166Z,101350.91
2023-01-21T07:22:22.140Z,101351.81
2023-01-21T07:24:50.691Z,101353.75
2023-01-21T07:27:19.132Z,101355.56
2023-01-21T07:29:47.689Z,101358.44
2023-01-21T07:32:16.117Z,101360.22
2023-01-21T07:34:44.763Z,101362.22
2023-01-21T07:37:14.610Z,101364.75
2023-01-21T07:39:43.191Z,101371.34
2023-01-21T07:42:11.977Z,101375.53
2023-01-21T07:44:40.603Z,101377.03
2023-01-21T07:47:10.535Z,101383.78
2023-01-21T07:49:39.429Z,101375.97
2023-01-21T07:52:08.048Z,101385.44
2023-01-21T07:54:37.962Z,101388.88
2023-01-21T07:57:06.328Z,101385.44
2023-01-21T07:59:34.714Z,101393.81
2023-01-21T08:02:03.405Z,101398.91
2023-01-21T08:04:32.280Z,101401.00
2023-01-21T08:07:02.169Z,101405.81
2023-01-21T08:09:30.602Z,101402.75
2023-01-21T08:12:00.435Z,101400.63
2023-01-21T08:14:28.797Z,101403.03
2023-01-21T08:16:57.440Z,101403.19
2023-01-21T08:19:26.279Z,101406.06
2023-01-21T08:21:55.057Z,101406.38
2023-01-21T08:24:23.504Z,101411.94
2023-01-21T08:26:51.931Z,101419.94
2023-01-21T08:29:21.680Z,101419.16
2023-01-21T08:31:50.182Z,101425.34
2023-01-21T08:34:18.768Z,101425.03
2023-01-21T08:36:47.143Z,101430.69
2023-01-21T08:39:16.816Z,101430.69
2023-01-21T08:41:45.986Z,101434.16
2023-01-21T08:44:14.810Z,101438.69
2023-01-21T08:46:44.640Z,101430.25
2023-01-21T08:49:13.057Z,101436.59
2023-01-21T08:51:41.935Z,101445.47
2023-01-21T08:54:10.714Z,101442.19
2023-01-21T08:56:39.140Z,101442.19
2023-01-21T08:59:07.668Z,101445.81
2023-01-21T09:01:40.857Z,101449.56
2023-01-21T09:04:11.557Z,101452.41
2023-01-21T09:06:40.071Z,101448.22
2023-01-21T09:09:08.766Z,101459.31
2023-01-21T09:11:37.271Z,101458.75
2023-01-21T09:14:06.769Z,101463.25
2023-01-21T09:16:36.451Z,101453.94
2023-01-21T09:19:05.825Z,101463.75
2023-01-21T09:21:35.844Z,101469.91
2023-01-21T09:24:04.536Z,101460.78
2023-01-21T09:26:33.240Z,101466.94
2023-01-21T09:29:03.056Z,101465.13
2023-01-21T09:31:32.499Z,101457.59
2023-01-21T09:34:03.685Z,101467.06
2023-01-21T09:36:36.165Z,101461.97
2023-01-21T09:39:05.496Z,101463.03
2023-01-21T09:41:38.324Z,101467.53
2023-01-21T09:44:18.234Z,101467.72
2023-01-21T09:46:54.350Z,101482.28
2023-01-21T09:49:27.612Z,101485.00
2023-01-21T09:52:11.844Z,101483.50
2023-01-21T09:54:41.146Z,101487.84
2023-01-21T09:57:55.944Z,101494.78
2023-01-21T10:00:34.483Z,101503.91
2023-01-21T10:03:20.023Z,101499.25
2023-01-21T10:06:14.819Z,101509.16
2023-01-21T10:09:03.485Z,101504.44
2023-01-21T10:11:47.820Z,101497.56
2023-01-21T10:14:56.797Z,101504.88
2023-01-21T10:17:38.381Z,101502.03
2023-01-21T10:20:15.089Z,101509.50
2023-01-21T10:22:52.432Z,101506.06
2023-01-21T10:25:28.115Z,101515.53
2023-01-21T10:28:00.852Z,101512.22
2023-01-21T10:30:36.086Z,101513.09
2023-01-21T10:33:06.144Z,101514.00
2023-01-21T10:36:05.378Z,101508.91
2023-01-21T10:38:41.796Z,101512.38
2023-01-21T10:41:35.386Z,101506.53
2023-01-21T10:44:14.894Z,101512.22
2023-01-21T10:46:52.848Z,101508.00
2023-01-21T10:49:35.843Z,101501.25
2023-01-21T10:52:11.584Z,101501.25
2023-01-21T10:54:51.683Z,101508.16
2023-01-21T10:57:39.929Z,101511.81
2023-01-21T11:00:20.661Z,101503.81
2023-01-21T11:02:55.313Z,101498.41
2023-01-21T11:05:26.098Z,101496.75
2023-01-21T11:07:56.605Z,101502.91
2023-01-21T11:10:28.124Z,101495.25
2023-01-21T11:12:58.417Z,101506.69
2023-01-21T11:15:27.811Z,101503.53
2023-01-21T11:17:57.402Z,101504.63
2023-01-21T11:20:36.564Z,101504.78
2023-01-21T11:23:06.749Z,101508.38
2023-01-21T11:25:41.661Z,101499.69
2023-01-21T11:28:26.395Z,101500.41
2023-01-21T11:31:09.170Z,101504.03
2023-01-21T11:33:38.678Z,101514.72
2023-01-21T11:36:16.928Z,101509.00
2023-01-21T11:38:48.088Z,101517.56
2023-01-21T11:41:21.562Z,101514.13
2023-01-21T11:43:54.075Z,101508.28
2023-01-21T11:46:37.274Z,101511.91
2023-01-21T11:49:31.432Z,101509.19
2023-01-21T11:52:20.930Z,101517.00
2023-01-21T11:54:49.925Z,101508.28
2023-01-21T11:57:31.636Z,101516.25
2023-01-21T12:00:10.282Z,101509.34
2023-01-21T12:02:46.457Z,101504.81
2023-01-21T12:05:26.267Z,101496.41
2023-01-21T12:07:56.027Z,101503.50
2023-01-21T12:10:31.457Z,101498.53
2023-01-21T12:13:20.067Z,101509.25
2023-01-21T12:16:33.186Z,101491.50
2023-01-21T12:19:41.556Z,101498.59
2023-01-21T12:22:35.898Z,101496.78
2023-01-21T12:25:22.960Z,101493.47
2023-01-21T12:28:08.977Z,101490.75
2023-01-21T12:30:48.298Z,101498.59
2023-01-21T12:33:24.095Z,101488.38
2023-01-21T12:35:57.284Z,101486.56
2023-01-21T12:38:32.121Z,101488.38
2023-01-21T12:41:07.161Z,101487.47
2023-01-21T12:43:41.348Z,101494.38
2023-01-21T12:46:18.360Z,101501.31
2023-01-21T12:48:52.504Z,101496.78
2023-01-21T12:51:28.869Z,101496.94
2023-01-21T12:54:03.430Z,101499.66
2023-01-21T12:56:40.267Z,101496.50
2023-01-21T12:59:17.678Z,101498.88
2023-01-21T13:01:55.065Z,101493.03
2023-01-21T13:04:41.841Z,101497.25
2023-01-21T13:07:22.984Z,101506.88
2023-01-21T13:09:59.113Z,101506.28
2023-01-21T13:12:30.695Z,101505.69
2023-01-21T13:15:04.418Z,101507.63
2023-01-21T13:17:35.571Z,101511.25
2023-01-21T13:20:15.273Z,101509.78
2023-01-21T13:22:58.500Z,101514.28
2023-01-21T13:25:37.505Z,101505.31
2023-01-21T13:28:16.102Z,101517.47
2023-01-21T13:30:52.261Z,101512.22
2023-01-21T13:33:37.048Z,101526.03
2023-01-21T13:36:25.192Z,101518.97
2023-01-21T13:39:05.221Z,101513.88
2023-01-21T13:41:49.084Z,101527.69
2023-01-21T13:44:48.063Z,101524.56
2023-01-21T13:47:31.268Z,101519.59
2023-01-21T13:50:23.440Z,101520.34
2023-01-21T13:53:36.755Z,101532.94
2023-01-21T13:56:26.342Z,101530.56
2023-01-21T13:59:02.643Z,101536.56
2023-01-21T14:01:35.799Z,101528.13
2023-01-21T14:04:11.950Z,101535.81
2023-01-21T14:06:49.688Z,101529.03
2023-01-21T14:09:24.589Z,101540.34
2023-01-21T14:12:01.050Z,101542.88
2023-01-21T14:15:24.509Z,101537.94
2023-01-21T14:18:14.794Z,101550.84
2023-01-21T14:21:21.833Z,101538.97
2023-01-21T14:24:09.853Z,101551.00
2023-01-21T14:27:06.059Z,101555.94
2023-01-21T14:29:39.635Z,101557.78
2023-01-21T14:32:15.303Z,101556.28
2023-01-21T14:34:56.094Z,101553.72
2023-01-21T14:37:34.142Z,101550.44
2023-01-21T14:40:16.328Z,101548.91
2023-01-21T14:42:50.035Z,101542.31
2023-01-21T14:45:22.652Z,101542.31
2023-01-21T14:47:53.364Z,101554.19
2023-01-21T14:50:52.863Z,101555.84
2023-01-21T14:53:25.260Z,101548.03
2023-01-21T14:56:10.671Z,101543.81
2023-01-21T14:58:40.758Z,101544.72
2023-01-21T15:01:09.695Z,101548.19
2023-01-21T15:03:50.345Z,101548.19
2023-01-21T15:06:24.097Z,101556.75
2023-01-21T15:08:54.929Z,101555.72
2023-01-21T15:11:30.406Z,101546.06
2023-01-21T15:14:24.356Z,101551.00
2023-01-21T15:16:53.337Z,101552.66
2023-01-21T15:19:29.254Z,101563.94
2023-01-21T15:22:24.220Z,101557.94
2023-01-21T15:25:20.870Z,101552.66
2023-01-21T15:28:35.245Z,101562.88
2023-01-21T15:31:08.710Z,101565.44
2023-01-21T15:33:42.906Z,101558.84
2023-01-21T15:36:31.877Z,101565.75
2023-01-21T15:39:03.084Z,101569.34
2023-01-21T15:41:44.813Z,101557.66
2023-01-21T15:44:36.829Z,101560.03
2023-01-21T15:47:34.431Z,101561.56
2023-01-21T15:50:11.235Z,101557.03
2023-01-21T15:52:56.491Z,101556.13
2023-01-21T15:55:44.522Z,101551.63
2023-01-21T15:58:26.547Z,101556.56
2023-01-21T16:01:04.499Z,101557.13
2023-01-21T16:03:44.386Z,101558.66
2023-01-21T16:06:27.800Z,101564.66
2023-01-21T16:09:06.984Z,101565.41
2023-01-21T16:11:57.353Z,101561.34
2023-01-21T16:14:42.789Z,101563.91
2023-01-21T16:17:19.708Z,101569.00
2023-01-21T16:19:53.398Z,101570.69
2023-01-21T16:22:26.264Z,101567.22
2023-01-21T16:25:00.747Z,101570.69
2023-01-21T16:27:31.812Z,101566.31
2023-01-21T16:30:02.320Z,101570.69
2023-01-21T16:32:32.383Z,101569.63
2023-01-21T16:35:02.296Z,101557.75
2023-01-21T16:37:32.244Z,101554.28
2023-01-21T16:40:26.806Z,101556.09
2023-01-21T16:43:13.283Z,101561.22
2023-01-21T16:45:49.811Z,101567.22
2023-01-21T16:48:25.411Z,101564.50
2023-01-21T16:50:55.961Z,101561.94
2023-01-21T16:53:26.461Z,101560.47
2023-01-21T16:55:57.991Z,101563.91
2023-01-21T16:58:30.192Z,101559.69
2023-01-21T17:01:03.059Z,101563.91
2023-01-21T17:03:33.893Z,101564.81
2023-01-21T17:06:11.222Z,101566.63
2023-01-21T17:08:40.816Z,101575.78
2023-01-21T17:11:11.976Z,101566.31
2023-01-21T17:13:43.855Z,101571.44
2023-01-21T17:16:25.940Z,101574.72
2023-01-21T17:18:58.347Z,101575.28
2023-01-21T17:21:37.683Z,101565.97
2023-01-21T17:24:18.088Z,101560.56
2023-01-21T17:26:49.973Z,101574.09
2023-01-21T17:29:21.257Z,101576.47
2023-01-21T17:31:57.531Z,101574.66
2023-01-21T17:34:28.940Z,101575.44
2023-01-21T17:36:59.104Z,101581.28
2023-01-21T17:40:00.799Z,101586.97
2023-01-21T17:42:41.617Z,101586.66
2023-01-21T17:45:20.959Z,101589.94
2023-01-21T17:48:08.625Z,101593.25
2023-01-21T17:50:38.135Z,101602.38
2023-01-21T17:53:19.447Z,101599.09
2023-01-21T17:56:00.154Z,101598.03
2023-01-21T17:58:53.329Z,101602.06
2023-01-21T18:01:22.628Z,101604.63
2023-01-21T18:03:51.200Z,101608.09
2023-01-21T18:06:24.358Z,101608.09
2023-01-21T18:08:55.012Z,101605.53
2023-01-21T18:11:24.303Z,101603.56
2023-01-21T18:13:53.376Z,101607.19
2023-01-21T18:16:22.145Z,101607.47
2023-01-21T18:18:54.051Z,101604.94
2023-01-21T18:21:23.301Z,101606.59
2023-01-21T18:23:53.259Z,101609.00
2023-01-21T18:26:28.967Z,101600.44
2023-01-21T18:28:57.355Z,101595.31
2023-01-21T18:31:26.055Z,101594.97
2023-01-21T18:33:54.568Z,101593.94
2023-01-21T18:36:22.989Z,101585.94
2023-01-21T18:38:53.399Z,101588.38
2023-01-21T18:41:21.941Z,101593.78
2023-01-21T18:43:50.607Z,101581.19
2023-01-21T18:46:19.883Z,101589.00
2023-01-21T18:48:48.534Z,101589.75
2023-01-21T18:51:17.088Z,101579.53
2023-01-21T18:53:45.444Z,101590.47
2023-01-21T18:56:17.429Z,101580.28
2023-01-21T18:58:46.298Z,101593.78
2023-01-21T19:01:23.153Z,101584.16
2023-01-21T19:03:54.798Z,101598.88
2023-01-21T19:06:25.906Z,101592.69
2023-01-21T19:08:55.119Z,101596.03
2023-01-21T19:11:25.507Z,101585.81
2023-01-21T19:13:53.980Z,101587.47
2023-01-21T19:16:23.177Z,101580.72
2023-01-21T19:18:51.933Z,101568.69
2023-01-21T19:21:20.392Z,101573.06
2023-01-21T19:23:49.155Z,101567.34
2023-01-21T19:26:18.268Z,101564.97
2023-01-21T19:28:48.087Z,101568.59
2023-01-21T19:31:16.655Z,101557.31
2023-01-21T19:33:47.181Z,101560.75
2023-01-21T19:36:20.383Z,101571.13
2023-01-21T19:38:55.322Z,101571.28
2023-01-21T19:41:23.938Z,101562.72
2023-01-21T19:43:53.856Z,101569.63
2023-01-21T19:46:24.210Z,101571.28
2023-01-21T19:48:53.757Z,101566.91
2023-01-21T19:51:22.612Z,101565.25
2023-01-21T19:53:51.153Z,101563.47
2023-01-21T19:56:24.706Z,101559.84
2023-01-21T19:58:55.054Z,101570.97
2023-01-21T20:01:23.429Z,101557.31
2023-01-21T20:04:00.079Z,101566.59
2023-01-21T20:06:31.843Z,101570.06
2023-01-21T20:09:01.911Z,101570.97
2023-01-21T20:11:30.517Z,101563.75
2023-01-21T20:14:00.284Z,101574.09
2023-01-21T20:16:31.250Z,101570.06
2023-01-21T20:19:02.131Z,101569.31
2023-01-21T20:21:30.872Z,101567.69
2023-01-21T20:23:59.647Z,101572.19
2023-01-21T20:26:29.154Z,101565.44
2023-01-21T20:29:01.351Z,101568.16
2023-01-21T20:31:30.290Z,101568.44
2023-01-21T20:33:58.814Z,101566.22
2023-01-21T20:36:28.596Z,101582.94
2023-01-21T20:38:57.415Z,101583.09
2023-01-21T20:41:25.853Z,101565.34
2023-01-21T20:43:54.508Z,101583.09
2023-01-21T20:46:28.989Z,101582.19
2023-01-21T20:48:58.819Z,101583.09
2023-01-21T20:51:28.013Z,101578.72
2023-01-21T20:53:56.888Z,101577.09
2023-01-21T20:56:28.733Z,101578.13
2023-01-21T20:58:57.461Z,101583.09
2023-01-21T21:01:29.254Z,101589.09
2023-01-21T21:03:57.803Z,101583.09
2023-01-21T21:06:29.376Z,101585.78
2023-01-21T21:08:58.078Z,101580.66
2023-01-21T21:11:26.574Z,101570.47
2023-01-21T21:13:56.053Z,101587.28
2023-01-21T21:16:30.125Z,101575.28
2023-01-21T21:18:59.566Z,101580.03
2023-01-21T21:21:28.245Z,101574.03
2023-01-21T21:23:56.937Z,101573.28
2023-01-21T21:26:27.485Z,101585.47
2023-01-21T21:28:57.361Z,101571.97
2023-01-21T21:31:32.216Z,101569.56
2023-01-21T21:34:02.206Z,101563.56
2023-01-21T21:36:30.985Z,101563.88
2023-01-21T21:39:00.464Z,101560.56
2023-01-21T21:41:46.554Z,101569.28
2023-01-21T21:44:15.368Z,101558.75
2023-01-21T21:47:02.789Z,101566.44
2023-01-21T21:49:31.763Z,101557.69
2023-01-21T21:52:01.203Z,101565.69
2023-01-21T21:54:29.808Z,101559.06
2023-01-21T21:56:58.962Z,101566.88
2023-01-21T21:59:27.603Z,101567.06
2023-01-21T22:02:00.725Z,101577.44
2023-01-21T22:04:29.201Z,101565.25
2023-01-21T22:06:58.041Z,101573.81
2023-01-21T22:09:26.699Z,101567.06
2023-01-21T22:11:55.205Z,101559.22
2023-01-21T22:14:23.804Z,101572.16
2023-01-21T22:16:53.995Z,101574.72
2023-01-21T22:19:24.010Z,101571.09
2023-01-21T22:21:52.395Z,101575.16
2023-01-21T22:24:21.498Z,101570.63
2023-01-21T22:26:49.920Z,101579.75
2023-01-21T22:29:18.386Z,101577.09
2023-01-21T22:31:46.865Z,101570.31
2023-01-21T22:34:15.743Z,101566.53
2023-01-21T22:36:47.862Z,101573.28
2023-01-21T22:39:16.567Z,101577.34
2023-01-21T22:41:45.462Z,101570.44
2023-01-21T22:44:14.164Z,101569.53
2023-01-21T22:46:42.684Z,101568.63
2023-01-21T22:49:12.427Z,101574.47
2023-01-21T22:51:41.503Z,101569.19
2023-01-21T22:54:11.610Z,101572.50
2023-01-21T22:56:52.196Z,101587.66
2023-01-21T22:59:21.520Z,101579.09
2023-01-21T23:01:51.198Z,101573.09
2023-01-21T23:04:19.909Z,101561.97
2023-01-21T23:06:48.919Z,101567.97
2023-01-21T23:09:18.902Z,101556.69
2023-01-21T23:11:47.410Z,101559.84
2023-01-21T23:14:17.217Z,101567.34
2023-01-21T23:16:45.842Z,101558.03
2023-01-21T23:19:15.062Z,101541.97
2023-01-21T23:21:43.493Z,101543.06
2023-01-21T23:24:12.104Z,101531.34
2023-01-21T23:26:41.977Z,101531.66
2023-01-21T23:29:10.723Z,101536.00
2023-01-21T23:31:39.262Z,101530.16
2023-01-21T23:34:07.731Z,101520.69
2023-01-21T23:36:36.544Z,101517.38
2023-01-21T23:39:05.231Z,101525.78
2023-01-21T23:41:33.664Z,101520.69
2023-01-21T23:44:03.695Z,101509.44
2023-01-21T23:46:32.282Z,101518.41
2023-01-21T23:49:01.053Z,101509.53
2023-01-21T23:51:29.403Z,101511.34
2023-01-21T23:53:58.808Z,101511.50
2023-01-21T23:56:27.814Z,101512.44
2023-01-21T23:58:56.338Z,101512.44
